createdAt,value
2018-10-06T00:00:56.633Z,10.0
2018-10-06T00:01:57.331Z,10.0
2018-10-06T00:02:57.999Z,10.1
2018-10-06T00:03:58.667Z,10.0
2018-10-06T00:04:59.333Z,9.9
2018-10-06T00:06:00.000Z,10.0
2018-10-06T00:07:00.668Z,10.0
2018-10-06T00:08:01.337Z,9.9
2018-10-06T00:09:02.008Z,10.0
2018-10-06T00:10:02.673Z,9.9
2018-10-06T00:11:03.340Z,9.9
2018-10-06T00:12:04.005Z,9.9
2018-10-06T00:13:04.674Z,9.8
2018-10-06T00:14:05.342Z,9.9
2018-10-06T00:15:06.006Z,9.9
2018-10-06T00:16:06.674Z,9.9
2018-10-06T00:17:07.340Z,9.8
2018-10-06T00:18:08.008Z,9.9
2018-10-06T00:19:08.672Z,9.8
2018-10-06T00:20:09.339Z,9.8
2018-10-06T00:21:10.008Z,9.8
2018-10-06T00:22:10.674Z,9.8
2018-10-06T00:23:11.342Z,9.8
2018-10-06T00:24:12.007Z,9.8
2018-10-06T00:25:12.674Z,9.8
2018-10-06T00:26:13.340Z,9.8
2018-10-06T00:27:14.008Z,9.8
2018-10-06T00:28:14.675Z,9.8
2018-10-06T00:29:15.343Z,9.8
2018-10-06T00:30:16.008Z,9.8
2018-10-06T00:31:16.673Z,9.8
2018-10-06T00:32:17.342Z,9.8
2018-10-06T00:33:18.008Z,9.8
2018-10-06T00:34:18.674Z,9.8
2018-10-06T00:35:19.341Z,9.8
2018-10-06T00:36:20.009Z,9.9
2018-10-06T00:37:20.675Z,9.8
2018-10-06T00:38:21.342Z,9.7
2018-10-06T00:39:22.009Z,9.8
2018-10-06T00:40:22.675Z,9.7
2018-10-06T00:41:23.340Z,9.8
2018-10-06T00:42:24.008Z,9.8
2018-10-06T00:43:24.678Z,9.8
2018-10-06T00:44:25.342Z,9.8
2018-10-06T00:45:26.015Z,9.7
2018-10-06T00:46:26.720Z,9.7
2018-10-06T00:47:27.387Z,9.7
2018-10-06T00:48:28.053Z,9.7
2018-10-06T00:49:28.749Z,9.7
2018-10-06T00:50:29.432Z,9.7
2018-10-06T00:51:30.099Z,9.7
2018-10-06T00:52:30.766Z,9.7
2018-10-06T00:53:31.434Z,9.7
2018-10-06T00:54:32.100Z,9.7
2018-10-06T00:55:32.772Z,9.6
2018-10-06T00:56:33.479Z,9.6
2018-10-06T00:57:34.149Z,9.7
2018-10-06T00:58:34.813Z,9.6
2018-10-06T00:59:35.480Z,9.6
2018-10-06T01:00:36.147Z,9.6
2018-10-06T01:01:36.815Z,9.6
2018-10-06T01:02:37.483Z,9.6
2018-10-06T01:03:38.150Z,9.7
2018-10-06T01:04:38.818Z,9.7
2018-10-06T01:05:39.486Z,9.6
2018-10-06T01:06:40.153Z,9.7
2018-10-06T01:07:40.847Z,9.6
2018-10-06T01:08:41.535Z,9.6
2018-10-06T01:09:42.202Z,9.6
2018-10-06T01:10:42.870Z,9.6
2018-10-06T01:11:43.541Z,9.6
2018-10-06T01:12:44.204Z,9.6
2018-10-06T01:13:44.873Z,9.6
2018-10-06T01:14:45.542Z,9.6
2018-10-06T01:15:46.208Z,9.6
2018-10-06T01:16:46.879Z,9.6
2018-10-06T01:17:47.544Z,9.7
2018-10-06T01:18:48.211Z,9.7
2018-10-06T01:19:48.879Z,9.7
2018-10-06T01:20:49.548Z,9.7
2018-10-06T01:21:50.221Z,9.8
2018-10-06T01:22:50.884Z,9.9
2018-10-06T01:23:51.551Z,9.8
2018-10-06T01:24:52.216Z,9.8
2018-10-06T01:25:52.883Z,9.8
2018-10-06T01:26:53.551Z,9.9
2018-10-06T01:27:54.218Z,9.9
2018-10-06T01:28:54.926Z,9.8
2018-10-06T01:29:55.552Z,9.9
2018-10-06T01:30:56.263Z,9.9
2018-10-06T01:31:56.930Z,10.0
2018-10-06T01:32:57.596Z,9.9
2018-10-06T01:33:58.265Z,9.9
2018-10-06T01:34:58.931Z,10.0
2018-10-06T01:35:59.599Z,10.1
2018-10-06T01:37:00.268Z,10.0
2018-10-06T01:38:00.939Z,10.1
2018-10-06T01:39:01.602Z,10.2
2018-10-06T01:40:02.274Z,10.2
2018-10-06T01:41:02.939Z,10.1
2018-10-06T01:42:03.608Z,10.2
2018-10-06T01:43:04.276Z,10.2
2018-10-06T01:44:04.942Z,10.3
2018-10-06T01:45:05.612Z,10.2
2018-10-06T01:46:06.281Z,10.2
2018-10-06T01:47:06.949Z,10.3
2018-10-06T01:48:07.616Z,10.2
2018-10-06T01:49:08.284Z,10.2
2018-10-06T01:50:08.952Z,10.2
2018-10-06T01:51:09.695Z,10.2
2018-10-06T01:52:10.290Z,10.2
2018-10-06T01:53:10.956Z,10.2
2018-10-06T01:54:11.625Z,10.2
2018-10-06T01:55:12.295Z,10.2
2018-10-06T01:56:12.961Z,10.1
2018-10-06T01:57:13.671Z,10.2
2018-10-06T01:58:14.342Z,10.2
2018-10-06T01:59:15.050Z,10.2
2018-10-06T02:00:15.718Z,10.0
2018-10-06T02:01:16.385Z,10.2
2018-10-06T02:02:17.052Z,10.1
2018-10-06T02:03:17.720Z,10.0
2018-10-06T02:04:18.389Z,10.1
2018-10-06T02:05:19.057Z,10.1
2018-10-06T02:06:19.727Z,10.1
2018-10-06T02:07:20.392Z,10.1
2018-10-06T02:08:21.058Z,10.0
2018-10-06T02:09:21.726Z,10.0
2018-10-06T02:10:22.399Z,10.0
2018-10-06T02:11:23.063Z,10.0
2018-10-06T02:12:23.730Z,10.0
2018-10-06T02:13:24.397Z,9.9
2018-10-06T02:14:25.064Z,10.0
2018-10-06T02:15:25.731Z,9.9
2018-10-06T02:16:26.402Z,10.0
2018-10-06T02:17:27.068Z,10.0
2018-10-06T02:18:27.734Z,9.9
2018-10-06T02:19:28.445Z,9.9
2018-10-06T02:20:29.115Z,10.0
2018-10-06T02:21:29.776Z,9.9
2018-10-06T02:22:30.443Z,9.9
2018-10-06T02:23:31.110Z,9.9
2018-10-06T02:24:31.782Z,10.0
2018-10-06T02:25:32.487Z,9.8
2018-10-06T02:26:33.154Z,9.8
2018-10-06T02:27:33.820Z,9.8
2018-10-06T02:28:34.486Z,9.9
2018-10-06T02:29:35.152Z,9.8
2018-10-06T02:30:35.820Z,9.8
2018-10-06T02:31:36.487Z,9.8
2018-10-06T02:32:37.154Z,9.8
2018-10-06T02:33:37.822Z,9.8
2018-10-06T02:34:38.531Z,9.8
2018-10-06T02:35:39.196Z,9.8
2018-10-06T02:36:39.881Z,9.8
2018-10-06T02:37:40.531Z,9.8
2018-10-06T02:38:41.197Z,9.7
2018-10-06T02:39:41.861Z,9.8
2018-10-06T02:40:42.528Z,9.7
2018-10-06T02:41:43.194Z,9.6
2018-10-06T02:42:43.860Z,9.7
2018-10-06T02:43:44.527Z,9.7
2018-10-06T02:44:45.193Z,9.7
2018-10-06T02:45:45.860Z,9.7
2018-10-06T02:46:46.528Z,9.7
2018-10-06T02:47:47.193Z,9.7
2018-10-06T02:48:47.861Z,9.7
2018-10-06T02:49:48.527Z,9.7
2018-10-06T02:50:49.192Z,9.7
2018-10-06T02:51:49.901Z,9.8
2018-10-06T02:52:50.569Z,9.7
2018-10-06T02:53:51.237Z,9.8
2018-10-06T02:54:51.905Z,9.9
2018-10-06T02:55:52.571Z,9.8
2018-10-06T02:56:53.242Z,9.8
2018-10-06T02:57:53.903Z,9.7
2018-10-06T02:58:54.570Z,9.8
2018-10-06T02:59:55.239Z,9.8
2018-10-06T03:00:55.906Z,9.9
2018-10-06T03:01:56.572Z,9.9
2018-10-06T03:02:57.240Z,10.0
2018-10-06T03:03:57.907Z,10.1
2018-10-06T03:04:58.572Z,10.1
2018-10-06T03:05:59.239Z,10.3
2018-10-06T03:06:59.912Z,10.3
2018-10-06T03:08:00.621Z,10.3
2018-10-06T03:09:01.290Z,10.4
2018-10-06T03:10:01.956Z,10.4
2018-10-06T03:11:02.624Z,10.5
2018-10-06T03:12:03.291Z,10.6
2018-10-06T03:13:04.004Z,10.6
2018-10-06T03:14:04.672Z,10.6
2018-10-06T03:15:05.340Z,10.6
2018-10-06T03:16:06.011Z,10.6
2018-10-06T03:17:06.717Z,10.8
2018-10-06T03:18:07.390Z,10.8
2018-10-06T03:19:08.054Z,10.9
2018-10-06T03:20:08.721Z,11.0
2018-10-06T03:21:09.390Z,11.0
2018-10-06T03:22:10.058Z,11.0
2018-10-06T03:23:10.726Z,11.0
2018-10-06T03:24:11.394Z,11.0
2018-10-06T03:25:12.070Z,11.0
2018-10-06T03:26:12.771Z,11.1
2018-10-06T03:27:13.438Z,11.1
2018-10-06T03:28:14.107Z,11.1
2018-10-06T03:29:14.777Z,11.0
2018-10-06T03:30:15.440Z,11.1
2018-10-06T03:31:16.109Z,11.1
2018-10-06T03:32:16.778Z,11.1
2018-10-06T03:33:17.445Z,11.1
2018-10-06T03:34:18.113Z,11.1
2018-10-06T03:35:18.784Z,11.1
2018-10-06T03:36:19.449Z,11.1
2018-10-06T03:37:20.117Z,11.1
2018-10-06T03:38:20.831Z,11.1
2018-10-06T03:39:21.498Z,11.1
2018-10-06T03:40:22.170Z,11.0
2018-10-06T03:41:22.835Z,11.1
2018-10-06T03:42:23.507Z,11.0
2018-10-06T03:43:24.179Z,11.0
2018-10-06T03:44:24.841Z,11.1
2018-10-06T03:45:25.509Z,11.0
2018-10-06T03:46:26.178Z,11.1
2018-10-06T03:47:26.844Z,11.0
2018-10-06T03:48:27.511Z,11.1
2018-10-06T03:49:28.179Z,10.9
2018-10-06T03:50:28.851Z,11.0
2018-10-06T03:51:29.559Z,10.9
2018-10-06T03:52:30.229Z,11.0
2018-10-06T03:53:30.896Z,11.0
2018-10-06T03:54:31.563Z,10.9
2018-10-06T03:55:32.231Z,10.9
2018-10-06T03:56:32.902Z,10.9
2018-10-06T03:57:33.569Z,10.9
2018-10-06T03:58:34.236Z,10.8
2018-10-06T03:59:34.908Z,11.0
2018-10-06T04:00:35.572Z,10.9
2018-10-06T04:01:36.239Z,10.9
2018-10-06T04:02:36.926Z,10.9
2018-10-06T04:03:37.579Z,11.0
2018-10-06T04:04:38.245Z,11.0
2018-10-06T04:05:38.913Z,11.0
2018-10-06T04:06:39.582Z,11.0
2018-10-06T04:07:40.292Z,10.9
2018-10-06T04:08:40.962Z,10.9
2018-10-06T04:09:41.630Z,10.9
2018-10-06T04:10:42.297Z,11.0
2018-10-06T04:11:42.965Z,11.0
2018-10-06T04:12:43.634Z,10.9
2018-10-06T04:13:44.301Z,10.9
2018-10-06T04:14:44.970Z,10.9
2018-10-06T04:15:45.638Z,10.9
2018-10-06T04:16:46.306Z,10.9
2018-10-06T04:17:46.974Z,10.9
2018-10-06T04:18:47.641Z,10.8
2018-10-06T04:19:48.321Z,10.9
2018-10-06T04:20:49.023Z,10.9
2018-10-06T04:21:49.696Z,11.1
2018-10-06T04:22:50.362Z,11.3
2018-10-06T04:23:51.030Z,11.2
2018-10-06T04:24:51.698Z,11.3
2018-10-06T04:25:52.367Z,11.3
2018-10-06T04:26:53.035Z,11.4
2018-10-06T04:27:53.704Z,11.5
2018-10-06T04:28:54.371Z,11.5
2018-10-06T04:29:55.039Z,11.5
2018-10-06T04:30:55.707Z,11.6
2018-10-06T04:31:56.375Z,11.5
2018-10-06T04:32:57.044Z,11.6
2018-10-06T04:33:57.714Z,11.7
2018-10-06T04:34:58.384Z,11.7
2018-10-06T04:35:59.053Z,11.7
2018-10-06T04:36:59.722Z,11.6
2018-10-06T04:38:00.388Z,11.6
2018-10-06T04:39:01.102Z,11.7
2018-10-06T04:40:01.773Z,11.7
2018-10-06T04:41:02.439Z,11.7
2018-10-06T04:42:03.109Z,11.6
2018-10-06T04:43:03.776Z,11.7
2018-10-06T04:44:04.447Z,11.7
2018-10-06T04:45:05.116Z,11.8
2018-10-06T04:46:05.786Z,11.7
2018-10-06T04:47:06.452Z,11.8
2018-10-06T04:48:07.161Z,11.8
2018-10-06T04:49:07.830Z,11.8
2018-10-06T04:50:08.498Z,11.9
2018-10-06T04:51:09.171Z,11.8
2018-10-06T04:52:09.838Z,11.8
2018-10-06T04:53:10.640Z,11.8
2018-10-06T04:54:11.177Z,11.8
2018-10-06T04:55:11.841Z,11.8
2018-10-06T04:56:12.531Z,11.7
2018-10-06T04:57:13.181Z,11.7
2018-10-06T04:58:13.891Z,11.7
2018-10-06T04:59:14.560Z,11.6
2018-10-06T05:00:15.232Z,11.6
2018-10-06T05:01:15.939Z,11.6
2018-10-06T05:02:16.608Z,11.4
2018-10-06T05:03:17.325Z,11.5
2018-10-06T05:04:17.945Z,11.5
2018-10-06T05:05:18.614Z,11.4
2018-10-06T05:06:19.284Z,11.5
2018-10-06T05:07:19.953Z,11.4
2018-10-06T05:08:20.628Z,11.3
2018-10-06T05:09:21.294Z,11.2
2018-10-06T05:10:21.964Z,11.2
2018-10-06T05:11:22.638Z,11.1
2018-10-06T05:12:23.302Z,11.0
2018-10-06T05:13:23.972Z,11.1
2018-10-06T05:14:24.644Z,11.0
2018-10-06T05:15:25.312Z,11.0
2018-10-06T05:16:25.981Z,11.0
2018-10-06T05:17:26.650Z,10.9
2018-10-06T05:18:27.319Z,10.9
2018-10-06T05:19:27.993Z,10.9
2018-10-06T05:20:28.663Z,10.8
2018-10-06T05:21:29.329Z,10.8
2018-10-06T05:22:29.998Z,10.7
2018-10-06T05:23:30.687Z,10.7
2018-10-06T05:24:31.340Z,10.6
2018-10-06T05:25:32.011Z,10.7
2018-10-06T05:26:32.682Z,10.6
2018-10-06T05:27:33.352Z,10.6
2018-10-06T05:28:34.024Z,10.6
2018-10-06T05:29:34.751Z,10.6
2018-10-06T05:30:35.365Z,10.6
2018-10-06T05:31:36.034Z,10.5
2018-10-06T05:32:36.721Z,10.6
2018-10-06T05:33:37.420Z,10.6
2018-10-06T05:34:38.091Z,10.5
2018-10-06T05:35:38.800Z,10.5
2018-10-06T05:36:39.469Z,10.4
2018-10-06T05:37:40.140Z,10.5
2018-10-06T05:38:40.812Z,10.3
2018-10-06T05:39:41.483Z,10.4
2018-10-06T05:40:42.194Z,10.4
2018-10-06T05:41:42.865Z,10.4
2018-10-06T05:42:43.535Z,10.4
2018-10-06T05:43:44.251Z,10.4
2018-10-06T05:44:44.923Z,10.3
2018-10-06T05:45:45.592Z,10.3
2018-10-06T05:46:46.265Z,10.3
2018-10-06T05:47:46.937Z,10.3
2018-10-06T05:48:47.609Z,10.3
2018-10-06T05:49:48.281Z,10.4
2018-10-06T05:50:48.955Z,10.3
2018-10-06T05:51:49.627Z,10.3
2018-10-06T05:52:50.299Z,10.3
2018-10-06T05:53:50.971Z,10.3
2018-10-06T05:54:51.646Z,10.3
2018-10-06T05:55:52.318Z,10.3
2018-10-06T05:56:52.991Z,10.3
2018-10-06T05:57:53.663Z,10.4
2018-10-06T05:58:54.383Z,10.4
2018-10-06T05:59:55.008Z,10.4
2018-10-06T06:00:55.721Z,10.4
2018-10-06T06:01:56.392Z,10.4
2018-10-06T06:02:57.068Z,10.4
2018-10-06T06:03:57.780Z,10.5
2018-10-06T06:04:58.452Z,10.4
2018-10-06T06:05:59.126Z,10.3
2018-10-06T06:06:59.798Z,10.5
2018-10-06T06:08:00.471Z,10.5
2018-10-06T06:09:01.143Z,10.6
2018-10-06T06:10:01.887Z,10.5
2018-10-06T06:11:02.538Z,10.6
2018-10-06T06:12:03.212Z,10.6
2018-10-06T06:13:03.891Z,10.6
2018-10-06T06:14:04.559Z,10.7
2018-10-06T06:15:05.274Z,10.6
2018-10-06T06:16:05.945Z,10.6
2018-10-06T06:17:06.620Z,10.6
2018-10-06T06:18:07.292Z,10.6
2018-10-06T06:19:07.964Z,10.7
2018-10-06T06:20:08.635Z,10.7
2018-10-06T06:21:09.313Z,10.6
2018-10-06T06:22:10.024Z,10.7
2018-10-06T06:23:10.695Z,10.6
2018-10-06T06:24:11.368Z,10.7
2018-10-06T06:25:12.042Z,10.7
2018-10-06T06:26:12.717Z,10.8
2018-10-06T06:27:13.430Z,10.8
2018-10-06T06:28:14.103Z,10.8
2018-10-06T06:29:14.774Z,10.7
2018-10-06T06:30:15.450Z,10.7
2018-10-06T06:31:16.152Z,10.8
2018-10-06T06:32:16.862Z,10.7
2018-10-06T06:33:17.464Z,10.8
2018-10-06T06:34:18.138Z,10.8
2018-10-06T06:35:18.810Z,10.8
2018-10-06T06:36:19.483Z,10.8
2018-10-06T06:37:20.159Z,10.9
2018-10-06T06:38:20.838Z,10.8
2018-10-06T06:39:21.500Z,10.8
2018-10-06T06:40:22.206Z,10.9
2018-10-06T06:41:22.851Z,10.9
2018-10-06T06:42:23.517Z,10.9
2018-10-06T06:43:24.193Z,10.9
2018-10-06T06:44:25.036Z,10.9
2018-10-06T06:45:25.537Z,11.0
2018-10-06T06:46:26.209Z,11.0
2018-10-06T06:47:26.883Z,11.1
2018-10-06T06:48:27.555Z,11.0
2018-10-06T06:49:28.228Z,11.0
2018-10-06T06:50:28.900Z,11.1
2018-10-06T06:51:29.573Z,11.1
2018-10-06T06:52:30.246Z,11.2
2018-10-06T06:53:30.917Z,11.2
2018-10-06T06:54:31.593Z,11.2
2018-10-06T06:55:32.266Z,11.3
2018-10-06T06:56:32.938Z,11.3
2018-10-06T06:57:33.611Z,11.4
2018-10-06T06:58:34.287Z,11.4
2018-10-06T06:59:34.957Z,11.4
2018-10-06T07:00:35.631Z,11.4
2018-10-06T07:01:36.305Z,11.4
2018-10-06T07:02:37.023Z,11.5
2018-10-06T07:03:37.698Z,11.6
2018-10-06T07:04:38.412Z,11.5
2018-10-06T07:05:39.124Z,11.5
2018-10-06T07:06:39.756Z,11.6
2018-10-06T07:07:40.430Z,11.6
2018-10-06T07:08:41.103Z,11.6
2018-10-06T07:09:41.778Z,11.7
2018-10-06T07:10:42.493Z,11.8
2018-10-06T07:11:43.166Z,11.7
2018-10-06T07:12:43.921Z,11.7
2018-10-06T07:13:44.554Z,11.7
2018-10-06T07:14:45.227Z,11.9
2018-10-06T07:15:45.899Z,11.9
2018-10-06T07:16:46.573Z,11.8
2018-10-06T07:17:47.246Z,11.9
2018-10-06T07:18:47.920Z,12.0
2018-10-06T07:19:48.593Z,12.0
2018-10-06T07:20:49.269Z,12.1
2018-10-06T07:21:49.940Z,12.1
2018-10-06T07:22:50.614Z,12.1
2018-10-06T07:23:51.287Z,12.1
2018-10-06T07:24:51.961Z,12.1
2018-10-06T07:25:52.635Z,12.2
2018-10-06T07:26:53.307Z,12.2
2018-10-06T07:27:53.980Z,12.3
2018-10-06T07:28:54.657Z,12.2
2018-10-06T07:29:55.329Z,12.3
2018-10-06T07:30:56.001Z,12.4
2018-10-06T07:31:56.678Z,12.4
2018-10-06T07:32:57.350Z,12.4
2018-10-06T07:33:58.026Z,12.5
2018-10-06T07:34:58.699Z,12.5
2018-10-06T07:35:59.378Z,12.6
2018-10-06T07:37:00.049Z,12.6
2018-10-06T07:38:00.723Z,12.6
2018-10-06T07:39:01.397Z,12.7
2018-10-06T07:40:02.073Z,12.8
2018-10-06T07:41:02.745Z,12.9
2018-10-06T07:42:03.419Z,12.8
2018-10-06T07:43:04.115Z,12.8
2018-10-06T07:44:04.818Z,13.0
2018-10-06T07:45:05.493Z,12.9
2018-10-06T07:46:06.167Z,13.0
2018-10-06T07:47:06.842Z,13.0
2018-10-06T07:48:07.515Z,13.0
2018-10-06T07:49:08.242Z,13.2
2018-10-06T07:50:08.863Z,13.3
2018-10-06T07:51:09.540Z,13.3
2018-10-06T07:52:10.211Z,13.4
2018-10-06T07:53:10.979Z,13.4
2018-10-06T07:54:11.560Z,13.5
2018-10-06T07:55:12.234Z,13.6
2018-10-06T07:56:12.908Z,13.7
2018-10-06T07:57:13.627Z,13.8
2018-10-06T07:58:14.311Z,13.8
2018-10-06T07:59:15.023Z,14.0
2018-10-06T08:00:15.654Z,14.1
2018-10-06T08:01:16.330Z,14.2
2018-10-06T08:02:17.003Z,14.2
2018-10-06T08:03:17.679Z,14.4
2018-10-06T08:04:18.354Z,14.5
2018-10-06T08:05:19.031Z,14.7
2018-10-06T08:06:19.709Z,14.8
2018-10-06T08:07:20.384Z,15.0
2018-10-06T08:08:21.059Z,15.0
2018-10-06T08:09:21.734Z,15.2
2018-10-06T08:10:22.410Z,15.4
2018-10-06T08:11:23.084Z,15.5
2018-10-06T08:12:23.762Z,15.6
2018-10-06T08:13:24.438Z,15.7
2018-10-06T08:14:25.114Z,15.9
2018-10-06T08:15:25.790Z,15.9
2018-10-06T08:16:26.466Z,16.1
2018-10-06T08:17:27.144Z,16.3
2018-10-06T08:18:27.819Z,16.3
2018-10-06T08:19:28.538Z,16.4
2018-10-06T08:20:29.214Z,16.5
2018-10-06T08:21:29.889Z,16.7
2018-10-06T08:22:30.566Z,16.8
2018-10-06T08:23:31.242Z,16.9
2018-10-06T08:24:31.917Z,17.0
2018-10-06T08:25:32.602Z,17.1
2018-10-06T08:26:33.270Z,17.3
2018-10-06T08:27:33.947Z,17.2
2018-10-06T08:28:34.623Z,17.3
2018-10-06T08:29:35.342Z,17.5
2018-10-06T08:30:36.019Z,17.5
2018-10-06T08:31:36.697Z,17.6
2018-10-06T08:32:37.375Z,17.7
2018-10-06T08:33:38.052Z,17.9
2018-10-06T08:34:38.771Z,18.0
2018-10-06T08:35:39.447Z,18.0
2018-10-06T08:36:40.126Z,18.1
2018-10-06T08:37:40.801Z,18.2
2018-10-06T08:38:41.483Z,18.3
2018-10-06T08:39:42.161Z,18.4
2018-10-06T08:40:42.878Z,18.5
2018-10-06T08:41:43.571Z,18.6
2018-10-06T08:42:44.289Z,18.6
2018-10-06T08:43:44.955Z,18.8
2018-10-06T08:44:45.632Z,18.8
2018-10-06T08:45:46.310Z,18.8
2018-10-06T08:46:46.987Z,18.9
2018-10-06T08:47:47.667Z,19.0
2018-10-06T08:48:48.386Z,19.1
2018-10-06T08:49:49.129Z,19.3
2018-10-06T08:50:49.742Z,19.3
2018-10-06T08:51:50.423Z,19.4
2018-10-06T08:52:51.143Z,19.7
2018-10-06T08:53:51.822Z,19.7
2018-10-06T08:54:52.502Z,19.9
2018-10-06T08:55:53.244Z,20.0
2018-10-06T08:56:53.901Z,20.2
2018-10-06T08:57:54.578Z,20.3
2018-10-06T08:58:55.258Z,20.6
2018-10-06T08:59:55.936Z,20.8
2018-10-06T09:00:56.615Z,20.8
2018-10-06T09:01:57.294Z,21.1
2018-10-06T09:02:57.973Z,21.2
2018-10-06T09:03:58.652Z,21.4
2018-10-06T09:04:59.329Z,21.6
2018-10-06T09:06:00.011Z,21.8
2018-10-06T09:07:00.689Z,21.9
2018-10-06T09:08:01.367Z,22.2
2018-10-06T09:09:02.045Z,22.3
2018-10-06T09:10:02.724Z,22.3
2018-10-06T09:11:03.459Z,22.5
2018-10-06T09:12:04.082Z,22.7
2018-10-06T09:13:04.762Z,22.7
2018-10-06T09:14:05.444Z,22.8
2018-10-06T09:15:06.123Z,22.9
2018-10-06T09:16:06.805Z,22.9
2018-10-06T09:17:07.525Z,23.0
2018-10-06T09:18:08.205Z,23.1
2018-10-06T09:19:08.886Z,23.3
2018-10-06T09:20:09.566Z,23.3
2018-10-06T09:21:10.251Z,23.4
2018-10-06T09:22:10.971Z,23.5
2018-10-06T09:23:11.658Z,23.5
2018-10-06T09:24:12.337Z,23.6
2018-10-06T09:25:13.015Z,23.6
2018-10-06T09:26:13.698Z,23.7
2018-10-06T09:27:14.378Z,23.7
2018-10-06T09:28:15.084Z,23.8
2018-10-06T09:29:15.741Z,23.8
2018-10-06T09:30:16.462Z,23.8
2018-10-06T09:31:17.141Z,23.7
2018-10-06T09:32:17.821Z,23.7
2018-10-06T09:33:18.503Z,23.7
2018-10-06T09:34:19.185Z,23.7
2018-10-06T09:35:19.913Z,23.8
2018-10-06T09:36:20.592Z,23.7
2018-10-06T09:37:21.307Z,23.6
2018-10-06T09:38:21.996Z,23.6
2018-10-06T09:39:22.676Z,23.5
2018-10-06T09:40:23.357Z,23.5
2018-10-06T09:41:24.038Z,23.5
2018-10-06T09:42:24.739Z,23.5
2018-10-06T09:43:25.444Z,23.5
2018-10-06T09:44:26.124Z,23.5
2018-10-06T09:45:26.812Z,23.4
2018-10-06T09:46:27.488Z,23.4
2018-10-06T09:47:28.171Z,23.5
2018-10-06T09:48:28.856Z,23.5
2018-10-06T09:49:29.601Z,23.5
2018-10-06T09:50:30.300Z,23.5
2018-10-06T09:51:30.980Z,23.5
2018-10-06T09:52:31.660Z,23.5
2018-10-06T09:53:32.350Z,23.4
2018-10-06T09:54:33.025Z,23.4
2018-10-06T09:55:33.705Z,23.5
2018-10-06T09:56:34.386Z,23.4
2018-10-06T09:57:35.072Z,23.3
2018-10-06T09:58:35.753Z,23.1
2018-10-06T09:59:36.439Z,23.2
2018-10-06T10:00:37.111Z,23.1
2018-10-06T10:01:37.792Z,23.0
2018-10-06T10:02:38.473Z,23.0
2018-10-06T10:03:39.156Z,22.9
2018-10-06T10:04:39.836Z,22.9
2018-10-06T10:05:40.521Z,22.9
2018-10-06T10:06:41.197Z,22.9
2018-10-06T10:07:41.881Z,22.9
2018-10-06T10:08:42.564Z,22.9
2018-10-06T10:09:43.338Z,22.9
2018-10-06T10:10:43.967Z,22.9
2018-10-06T10:11:44.648Z,22.9
2018-10-06T10:12:45.429Z,22.8
2018-10-06T10:13:46.011Z,22.8
2018-10-06T10:14:46.692Z,22.8
2018-10-06T10:15:47.375Z,22.7
2018-10-06T10:16:48.054Z,22.8
2018-10-06T10:17:48.886Z,22.7
2018-10-06T10:18:49.469Z,22.7
2018-10-06T10:19:50.183Z,22.7
2018-10-06T10:20:50.875Z,22.7
2018-10-06T10:21:51.613Z,22.7
2018-10-06T10:22:52.288Z,22.8
2018-10-06T10:23:52.941Z,22.7
2018-10-06T10:24:53.600Z,22.7
2018-10-06T10:25:54.279Z,22.7
2018-10-06T10:26:54.963Z,22.7
2018-10-06T10:27:55.686Z,22.7
2018-10-06T10:28:56.444Z,22.7
2018-10-06T10:29:57.046Z,22.8
2018-10-06T10:30:57.727Z,22.6
2018-10-06T10:31:58.408Z,22.7
2018-10-06T10:32:59.089Z,22.7
2018-10-06T10:33:59.771Z,22.7
2018-10-06T10:35:00.453Z,22.7
2018-10-06T10:36:01.139Z,22.7
2018-10-06T10:37:01.866Z,22.7
2018-10-06T10:38:02.547Z,22.8
2018-10-06T10:39:03.273Z,22.8
2018-10-06T10:40:03.909Z,22.8
2018-10-06T10:41:04.589Z,22.8
2018-10-06T10:42:05.284Z,22.8
2018-10-06T10:43:05.996Z,22.9
2018-10-06T10:44:06.804Z,22.9
2018-10-06T10:45:07.427Z,22.9
2018-10-06T10:46:08.122Z,22.9
2018-10-06T10:47:08.804Z,22.9
2018-10-06T10:48:09.488Z,23.0
2018-10-06T10:49:10.164Z,23.0
2018-10-06T10:50:10.848Z,23.0
2018-10-06T10:51:11.528Z,23.0
2018-10-06T10:52:12.236Z,23.0
2018-10-06T10:53:12.931Z,23.0
2018-10-06T10:54:13.612Z,23.1
2018-10-06T10:55:14.294Z,23.1
2018-10-06T10:56:14.973Z,23.1
2018-10-06T10:57:15.656Z,23.1
2018-10-06T10:58:16.356Z,23.1
2018-10-06T10:59:17.060Z,23.2
2018-10-06T11:00:17.910Z,23.2
2018-10-06T11:01:18.430Z,23.2
2018-10-06T11:02:19.113Z,23.2
2018-10-06T11:03:19.829Z,23.2
2018-10-06T11:04:20.508Z,23.2
2018-10-06T11:05:21.189Z,23.2
2018-10-06T11:06:21.912Z,23.2
2018-10-06T11:07:22.593Z,23.1
2018-10-06T11:08:23.274Z,23.1
2018-10-06T11:09:23.954Z,23.2
2018-10-06T11:10:24.636Z,23.2
2018-10-06T11:11:25.342Z,23.1
2018-10-06T11:12:25.997Z,23.2
2018-10-06T11:13:26.677Z,23.2
2018-10-06T11:14:27.408Z,23.2
2018-10-06T11:15:28.090Z,23.3
2018-10-06T11:16:28.813Z,23.3
2018-10-06T11:17:29.493Z,23.3
2018-10-06T11:18:30.174Z,23.4
2018-10-06T11:19:30.861Z,23.4
2018-10-06T11:20:31.550Z,23.4
2018-10-06T11:21:32.260Z,23.4
2018-10-06T11:22:32.940Z,23.4
2018-10-06T11:23:33.624Z,23.5
2018-10-06T11:24:34.346Z,23.4
2018-10-06T11:25:35.028Z,23.4
2018-10-06T11:26:35.710Z,23.5
2018-10-06T11:27:36.390Z,23.5
2018-10-06T11:28:37.074Z,23.6
2018-10-06T11:29:37.753Z,23.6
2018-10-06T11:30:38.436Z,23.6
2018-10-06T11:31:39.116Z,23.7
2018-10-06T11:32:39.796Z,23.7
2018-10-06T11:33:40.480Z,23.7
2018-10-06T11:34:41.156Z,23.7
2018-10-06T11:35:41.838Z,23.8
2018-10-06T11:36:42.517Z,23.8
2018-10-06T11:37:43.310Z,23.8
2018-10-06T11:38:43.917Z,23.8
2018-10-06T11:39:44.599Z,23.8
2018-10-06T11:40:45.279Z,23.8
2018-10-06T11:41:45.962Z,23.9
2018-10-06T11:42:46.642Z,23.9
2018-10-06T11:43:47.324Z,23.9
2018-10-06T11:44:48.049Z,23.9
2018-10-06T11:45:48.751Z,23.8
2018-10-06T11:46:49.454Z,23.8
2018-10-06T11:47:50.135Z,23.8
2018-10-06T11:48:50.817Z,23.8
2018-10-06T11:49:51.593Z,23.8
2018-10-06T11:50:52.254Z,24.0
2018-10-06T11:51:52.944Z,23.9
2018-10-06T11:52:53.661Z,24.0
2018-10-06T11:53:54.346Z,23.9
2018-10-06T11:54:55.022Z,24.0
2018-10-06T11:55:55.705Z,24.0
2018-10-06T11:56:56.419Z,24.1
2018-10-06T11:57:57.110Z,24.1
2018-10-06T11:58:57.838Z,24.1
2018-10-06T11:59:58.545Z,24.2
2018-10-06T12:00:59.202Z,24.3
2018-10-06T12:01:59.923Z,24.2
2018-10-06T12:03:00.607Z,24.3
2018-10-06T12:04:01.329Z,24.3
2018-10-06T12:05:02.040Z,24.4
2018-10-06T12:06:02.737Z,24.4
2018-10-06T12:07:03.469Z,24.4
2018-10-06T12:08:04.156Z,24.5
2018-10-06T12:09:04.832Z,24.5
2018-10-06T12:10:05.515Z,24.6
2018-10-06T12:11:06.198Z,24.6
2018-10-06T12:12:06.880Z,24.7
2018-10-06T12:13:07.562Z,24.7
2018-10-06T12:14:08.241Z,24.8
2018-10-06T12:15:08.925Z,24.8
2018-10-06T12:16:09.605Z,24.8
2018-10-06T12:17:10.286Z,24.7
2018-10-06T12:18:10.967Z,24.8
2018-10-06T12:19:11.652Z,24.7
2018-10-06T12:20:12.331Z,24.7
2018-10-06T12:21:13.102Z,24.6
2018-10-06T12:22:13.787Z,24.4
2018-10-06T12:23:14.509Z,24.4
2018-10-06T12:24:15.190Z,24.3
2018-10-06T12:25:15.914Z,24.3
2018-10-06T12:26:16.630Z,24.3
2018-10-06T12:27:17.319Z,24.3
2018-10-06T12:28:17.999Z,24.2
2018-10-06T12:29:18.723Z,24.2
2018-10-06T12:30:19.417Z,24.1
2018-10-06T12:31:20.129Z,24.1
2018-10-06T12:32:20.887Z,24.1
2018-10-06T12:33:21.590Z,24.1
2018-10-06T12:34:22.311Z,24.2
2018-10-06T12:35:23.119Z,24.2
2018-10-06T12:36:23.683Z,24.1
2018-10-06T12:37:24.413Z,24.1
2018-10-06T12:38:25.129Z,24.1
2018-10-06T12:39:25.811Z,24.2
2018-10-06T12:40:26.492Z,24.2
2018-10-06T12:41:27.217Z,24.2
2018-10-06T12:42:27.918Z,24.1
2018-10-06T12:43:28.674Z,24.2
2018-10-06T12:44:29.398Z,24.1
2018-10-06T12:45:30.085Z,24.1
2018-10-06T12:46:30.760Z,24.2
2018-10-06T12:48:46.997Z,24.2
2018-10-06T12:49:47.728Z,24.1
2018-10-06T12:50:48.454Z,24.3
2018-10-06T12:51:49.155Z,24.3
2018-10-06T12:52:49.910Z,24.3
2018-10-06T12:53:50.591Z,24.4
2018-10-06T12:54:51.275Z,24.5
2018-10-06T12:55:51.955Z,24.5
2018-10-06T12:56:52.636Z,24.5
2018-10-06T12:57:53.317Z,24.6
2018-10-06T12:58:53.999Z,24.6
2018-10-06T12:59:54.725Z,24.6
2018-10-06T13:00:55.376Z,24.6
2018-10-06T13:01:56.089Z,24.6
2018-10-06T13:02:56.771Z,24.6
2018-10-06T13:03:57.451Z,24.6
2018-10-06T13:04:58.136Z,24.5
2018-10-06T13:05:58.864Z,24.5
2018-10-06T13:06:59.497Z,24.4
2018-10-06T13:08:00.179Z,24.5
2018-10-06T13:09:00.904Z,24.3
2018-10-06T13:10:01.587Z,24.3
2018-10-06T13:11:02.267Z,24.3
2018-10-06T13:12:03.061Z,24.3
2018-10-06T13:13:03.631Z,24.3
2018-10-06T13:14:04.312Z,24.2
2018-10-06T13:15:04.993Z,24.1
2018-10-06T13:16:05.677Z,24.2
2018-10-06T13:17:06.443Z,24.1
2018-10-06T13:18:07.135Z,24.1
2018-10-06T13:19:07.815Z,24.1
2018-10-06T13:20:08.540Z,24.1
2018-10-06T13:21:09.222Z,24.0
2018-10-06T13:22:09.905Z,24.0
2018-10-06T13:23:10.588Z,24.1
2018-10-06T13:24:11.267Z,24.1
2018-10-06T13:25:11.949Z,24.0
2018-10-06T13:26:12.681Z,23.9
2018-10-06T13:27:13.361Z,24.0
2018-10-06T13:28:14.044Z,24.0
2018-10-06T13:29:14.727Z,23.9
2018-10-06T13:30:15.407Z,23.9
2018-10-06T13:31:16.090Z,23.9
2018-10-06T13:32:16.770Z,23.9
2018-10-06T13:33:17.450Z,23.9